aviador You're here:

OIGG Decoded Metar

RASHT in IRAN
Report Time2017-08-22 08:30:00
UTC Time2017-08-22 08:58:16
Flight Rules vfr VFR
WindVRB at 02 kt
Visibility9999 m
Phenomena:N/A
Clouds:Scattered 025 Hf
Expected CloudBase > 4,000 ft AGL from Temp-Dew spread
CeilingNone
Temp33°C (ISA +18)
Dew Point23°C (56% RH)
Heat Index38.1°C
QNH1007 hPa
Density Alt2,569 ft
Elevation-43 ft
Report Wrong Elevation
Raw Report
OIGG 220830Z VRB02KT 9999 SCT025 33/23 Q1007=

Extra information for OIGG:More info

Metar Taf Metar & Taf Last 4 Metars F.Rules Stats Wind Profile Meteogram Temp Stats Airport Information Weather charts Add Link Nearby VenuesMetar ALERT Operation Metar Decoded Social comments